KHDN/HDN METAR and TAF weather

Enter ICAO airport designator
Station Type Date Time Source
KHDN METAR 2022/11/30 23:56 UTC NOAA

KHDN 302356Z AUTO 10006KT 10SM CLR M02/M10 A2999 RMK AO2 SLP202 60001 T10221100 10017 21039 58014 FZRANO


Station Type Date Time Source
KHDN Decoded METAR 2022/11/30 23:56 UTC NOAA

Hayden, Yampa Valley Airport, CO, United States (KHDN) 40-29N 107-13W
Nov 30, 2022 - 06:56 PM EST / 2022.11.30 2356 UTC
Wind: from the E (100 degrees) at 7 MPH (6 KT):0
Visibility: 10 mile(s):0
Sky conditions: clear
Temperature: 28.0 F (-2.2 C)
Windchill: 21 F (-6 C):1
Dew Point: 14.0 F (-10.0 C)
Relative Humidity: 55%
Pressure (altimeter): 29.99 in. Hg (1015 hPa)
Pressure tendency: 0.04 inches (1.4 hPa) lower than three hours ago
ob: KHDN 302356Z AUTO 10006KT 10SM CLR M02/M10 A2999 RMK AO2 SLP202 60001 T10221100 10017 21039 58014 FZRANO
cycle: 0

Station Type Date Time Source
KHDN TAF 2022/11/30 18:33 UTC NOAA

TAF KHDN 301730Z 3018/0118 11007KT P6SM BKN250

Example: see airport list